createdAt,value
2022-11-29T00:02:31.587Z,100.00
2022-11-29T00:05:44.797Z,100.00
2022-11-29T00:08:50.556Z,100.00
2022-11-29T00:12:14.598Z,100.00
2022-11-29T00:15:20.117Z,100.00
2022-11-29T00:18:25.427Z,100.00
2022-11-29T00:21:31.824Z,100.00
2022-11-29T00:24:40.060Z,100.00
2022-11-29T00:27:45.425Z,100.00
2022-11-29T00:30:50.754Z,100.00
2022-11-29T00:33:57.241Z,100.00
2022-11-29T00:37:02.777Z,100.00
2022-11-29T00:40:09.593Z,100.00
2022-11-29T00:43:14.953Z,100.00
2022-11-29T00:46:23.897Z,100.00
2022-11-29T00:49:29.494Z,100.00
2022-11-29T00:52:35.175Z,100.00
2022-11-29T00:55:40.737Z,100.00
2022-11-29T00:58:46.191Z,100.00
2022-11-29T01:01:51.712Z,100.00
2022-11-29T01:04:57.391Z,100.00
2022-11-29T01:08:02.735Z,100.00
2022-11-29T01:11:10.093Z,100.00
2022-11-29T01:14:15.545Z,100.00
2022-11-29T01:17:20.965Z,100.00
2022-11-29T01:20:26.806Z,100.00
2022-11-29T01:23:32.561Z,100.00
2022-11-29T01:26:37.933Z,100.00
2022-11-29T01:29:43.431Z,100.00
2022-11-29T01:32:48.754Z,100.00
2022-11-29T01:35:55.586Z,100.00
2022-11-29T01:39:01.902Z,100.00
2022-11-29T01:42:07.283Z,100.00
2022-11-29T01:45:20.053Z,100.00
2022-11-29T01:48:27.424Z,100.00
2022-11-29T01:51:34.539Z,100.00
2022-11-29T01:54:43.690Z,100.00
2022-11-29T01:57:49.434Z,100.00
2022-11-29T02:00:57.021Z,100.00
2022-11-29T02:04:02.781Z,100.00
2022-11-29T02:07:08.459Z,100.00
2022-11-29T02:10:14.413Z,100.00
2022-11-29T02:13:25.250Z,100.00
2022-11-29T02:16:35.524Z,100.00
2022-11-29T02:19:55.016Z,100.00
2022-11-29T02:23:06.635Z,100.00
2022-11-29T02:26:21.680Z,100.00
2022-11-29T02:29:52.648Z,100.00
2022-11-29T02:33:11.107Z,100.00
2022-11-29T02:36:25.255Z,100.00
2022-11-29T02:39:45.076Z,100.00
2022-11-29T02:43:06.978Z,100.00
2022-11-29T02:46:22.151Z,100.00
2022-11-29T02:49:36.026Z,100.00
2022-11-29T02:52:46.293Z,100.00
2022-11-29T02:55:56.424Z,100.00
2022-11-29T02:59:04.655Z,100.00
2022-11-29T03:02:15.565Z,100.00
2022-11-29T03:05:26.438Z,100.00
2022-11-29T03:08:36.186Z,100.00
2022-11-29T03:11:47.223Z,100.00
2022-11-29T03:14:56.874Z,100.00
2022-11-29T03:18:11.618Z,100.00
2022-11-29T03:21:20.283Z,100.00
2022-11-29T03:24:29.997Z,100.00
2022-11-29T03:27:38.081Z,100.00
2022-11-29T03:30:45.616Z,100.00
2022-11-29T03:33:54.659Z,100.00
2022-11-29T03:37:04.868Z,100.00
2022-11-29T03:40:12.799Z,100.00
2022-11-29T03:43:21.732Z,100.00
2022-11-29T03:46:30.419Z,100.00
2022-11-29T03:49:39.048Z,100.00
2022-11-29T03:52:49.362Z,100.00
2022-11-29T03:55:56.499Z,100.00
2022-11-29T03:59:11.689Z,100.00
2022-11-29T04:02:29.158Z,100.00
2022-11-29T04:05:42.640Z,100.00
2022-11-29T04:08:56.213Z,100.00
2022-11-29T04:12:16.982Z,100.00
2022-11-29T04:15:39.689Z,100.00
2022-11-29T04:18:59.893Z,100.00
2022-11-29T04:22:18.348Z,100.00
2022-11-29T04:25:39.582Z,100.00
2022-11-29T04:29:01.551Z,100.00
2022-11-29T04:32:18.727Z,100.00
2022-11-29T04:35:30.772Z,100.00
2022-11-29T04:38:48.220Z,100.00
2022-11-29T04:42:04.304Z,100.00
2022-11-29T04:45:34.373Z,99.98
2022-11-29T04:48:52.840Z,99.97
2022-11-29T04:52:11.280Z,99.99
2022-11-29T04:55:34.086Z,99.94
2022-11-29T04:58:42.480Z,99.98
2022-11-29T05:01:55.647Z,100.00
2022-11-29T05:05:05.734Z,99.98
2022-11-29T05:08:20.514Z,100.00
2022-11-29T05:11:30.798Z,100.00
2022-11-29T05:14:43.279Z,100.00
2022-11-29T05:17:56.429Z,100.00
2022-11-29T05:21:07.372Z,100.00
2022-11-29T05:24:19.069Z,100.00
2022-11-29T05:27:33.313Z,100.00
2022-11-29T05:30:48.233Z,99.99
2022-11-29T05:34:07.025Z,100.00
2022-11-29T05:37:19.978Z,100.00
2022-11-29T05:40:40.791Z,100.00
2022-11-29T05:43:49.711Z,100.00
2022-11-29T05:46:59.854Z,100.00
2022-11-29T05:50:11.173Z,100.00
2022-11-29T05:53:23.259Z,100.00
2022-11-29T05:56:35.534Z,100.00
2022-11-29T05:59:42.505Z,100.00
2022-11-29T06:02:52.473Z,100.00
2022-11-29T06:06:00.763Z,99.94
2022-11-29T06:09:12.567Z,99.98
2022-11-29T06:12:21.353Z,99.99
2022-11-29T06:15:38.671Z,99.78
2022-11-29T06:18:54.866Z,99.75
2022-11-29T06:22:09.789Z,99.81
2022-11-29T06:25:21.749Z,99.69
2022-11-29T06:28:34.226Z,99.82
2022-11-29T06:31:44.619Z,99.79
2022-11-29T06:34:55.679Z,99.75
2022-11-29T06:38:04.551Z,99.61
2022-11-29T06:41:15.007Z,99.82
2022-11-29T06:44:21.478Z,99.90
2022-11-29T06:47:31.697Z,99.90
2022-11-29T06:50:46.952Z,99.73
2022-11-29T06:53:57.474Z,99.88
2022-11-29T06:57:07.418Z,99.69
2022-11-29T07:00:17.286Z,99.80
2022-11-29T07:03:40.460Z,99.75
2022-11-29T07:06:48.587Z,100.00
2022-11-29T07:09:59.807Z,99.99
2022-11-29T07:13:06.055Z,99.91
2022-11-29T07:16:15.239Z,99.46
2022-11-29T07:19:26.809Z,99.29
2022-11-29T07:22:42.307Z,99.19
2022-11-29T07:25:54.266Z,99.32
2022-11-29T07:29:08.888Z,99.34
2022-11-29T07:32:21.745Z,99.47
2022-11-29T07:35:30.934Z,99.38
2022-11-29T07:38:51.016Z,99.41
2022-11-29T07:42:01.164Z,99.51
2022-11-29T07:45:13.924Z,99.46
2022-11-29T07:48:19.609Z,99.38
2022-11-29T07:51:25.062Z,99.37
2022-11-29T07:54:31.243Z,99.33
2022-11-29T07:57:36.992Z,99.35
2022-11-29T08:00:43.244Z,99.45
2022-11-29T08:03:51.052Z,99.60
2022-11-29T08:06:58.800Z,99.41
2022-11-29T08:10:04.849Z,99.42
2022-11-29T08:13:10.291Z,99.48
2022-11-29T08:16:18.696Z,99.37
2022-11-29T08:19:24.140Z,99.30
2022-11-29T08:22:29.580Z,99.17
2022-11-29T08:25:45.367Z,99.02
2022-11-29T08:28:53.174Z,98.83
2022-11-29T08:31:59.108Z,98.80
2022-11-29T08:35:04.525Z,98.78
2022-11-29T08:38:09.894Z,98.75
2022-11-29T08:41:16.287Z,98.63
2022-11-29T08:44:21.795Z,98.56
2022-11-29T08:47:39.313Z,98.62
2022-11-29T08:50:44.880Z,98.47
2022-11-29T08:53:51.839Z,98.09
2022-11-29T08:57:37.405Z,98.18
2022-11-29T09:00:23.152Z,98.26
2022-11-29T09:03:45.932Z,98.05
2022-11-29T09:06:51.586Z,98.01
2022-11-29T09:09:56.995Z,98.09
2022-11-29T09:13:02.471Z,97.94
2022-11-29T09:16:09.510Z,97.71
2022-11-29T09:19:15.571Z,97.66
2022-11-29T09:22:21.950Z,97.60
2022-11-29T09:25:27.208Z,97.61
2022-11-29T09:28:34.364Z,97.82
2022-11-29T09:31:39.721Z,97.77
2022-11-29T09:34:46.472Z,97.84
2022-11-29T09:37:52.132Z,97.55
2022-11-29T09:40:59.049Z,97.55
2022-11-29T09:44:10.103Z,97.43
2022-11-29T09:47:21.571Z,97.20
2022-11-29T09:50:29.720Z,96.93
2022-11-29T09:53:44.839Z,96.80
2022-11-29T09:56:51.503Z,96.70
2022-11-29T09:59:59.255Z,96.51
2022-11-29T10:03:11.043Z,96.47
2022-11-29T10:06:20.372Z,96.26
2022-11-29T10:09:33.672Z,96.18
2022-11-29T10:12:42.675Z,95.82
2022-11-29T10:15:51.501Z,95.49
2022-11-29T10:18:59.880Z,95.06
2022-11-29T10:22:06.771Z,95.36
2022-11-29T10:25:17.955Z,95.16
2022-11-29T10:28:25.986Z,94.86
2022-11-29T10:31:33.985Z,94.51
2022-11-29T10:34:39.951Z,94.71
2022-11-29T10:38:01.582Z,94.71
2022-11-29T10:41:13.386Z,94.52
2022-11-29T10:44:18.808Z,94.30
2022-11-29T10:47:24.365Z,94.53
2022-11-29T10:50:30.978Z,94.33
2022-11-29T10:53:38.594Z,94.45
2022-11-29T10:56:44.938Z,94.49
2022-11-29T11:00:01.166Z,94.50
2022-11-29T11:03:17.376Z,94.41
2022-11-29T11:06:23.919Z,94.56
2022-11-29T11:09:32.314Z,94.39
2022-11-29T11:12:37.992Z,94.53
2022-11-29T11:15:43.428Z,94.92
2022-11-29T11:18:49.067Z,94.69
2022-11-29T11:21:54.730Z,94.33
2022-11-29T11:25:02.218Z,94.17
2022-11-29T11:28:18.132Z,93.79
2022-11-29T11:31:32.620Z,93.94
2022-11-29T11:34:38.970Z,93.86
2022-11-29T11:37:57.231Z,93.65
2022-11-29T11:41:08.229Z,93.93
2022-11-29T11:44:52.554Z,93.83
2022-11-29T11:47:50.008Z,93.55
2022-11-29T11:50:57.211Z,93.54
2022-11-29T11:54:03.012Z,93.29
2022-11-29T11:57:17.231Z,93.03
2022-11-29T12:01:02.284Z,92.64
2022-11-29T12:04:04.624Z,92.17
2022-11-29T12:07:19.015Z,91.96
2022-11-29T12:10:26.463Z,92.04
2022-11-29T12:13:34.803Z,92.73
2022-11-29T12:16:41.518Z,91.91
2022-11-29T12:19:54.133Z,92.00
2022-11-29T12:23:19.901Z,91.83
2022-11-29T12:26:56.027Z,91.55
2022-11-29T12:29:52.601Z,91.59
2022-11-29T12:33:03.772Z,91.18
2022-11-29T12:36:15.164Z,90.87
2022-11-29T12:39:46.358Z,91.13
2022-11-29T12:42:56.240Z,91.47
2022-11-29T12:46:05.900Z,91.38
2022-11-29T12:49:17.320Z,91.74
2022-11-29T12:52:28.215Z,92.10
2022-11-29T12:55:41.588Z,91.71
2022-11-29T12:58:54.950Z,91.62
2022-11-29T13:02:05.727Z,91.49
2022-11-29T13:05:15.823Z,91.75
2022-11-29T13:08:29.581Z,91.66
2022-11-29T13:11:37.192Z,91.89
2022-11-29T13:14:49.577Z,91.89
2022-11-29T13:17:59.419Z,91.66
2022-11-29T13:21:08.986Z,92.04
2022-11-29T13:24:18.878Z,92.15
2022-11-29T13:27:26.197Z,92.40
2022-11-29T13:30:31.707Z,92.49
2022-11-29T13:33:43.853Z,92.13
2022-11-29T13:36:55.082Z,92.31
2022-11-29T13:40:06.955Z,92.46
2022-11-29T13:43:19.407Z,92.80
2022-11-29T13:46:29.310Z,92.85
2022-11-29T13:50:04.631Z,93.04
2022-11-29T13:53:15.497Z,93.47
2022-11-29T13:56:34.049Z,93.44
2022-11-29T13:59:47.412Z,93.58
2022-11-29T14:02:55.209Z,93.67
2022-11-29T14:06:11.159Z,93.89
2022-11-29T14:09:28.922Z,94.30
2022-11-29T14:12:39.362Z,94.37
2022-11-29T14:15:45.012Z,94.60
2022-11-29T14:19:05.485Z,94.85
2022-11-29T14:22:31.494Z,94.97
2022-11-29T14:25:53.112Z,95.20
2022-11-29T14:28:59.726Z,95.25
2022-11-29T14:32:05.323Z,95.59
2022-11-29T14:35:15.702Z,95.66
2022-11-29T14:38:30.706Z,95.62
2022-11-29T14:41:44.867Z,95.74
2022-11-29T14:44:52.318Z,95.77
2022-11-29T14:47:58.415Z,95.91
2022-11-29T14:51:11.094Z,96.04
2022-11-29T14:54:18.471Z,96.35
2022-11-29T14:57:41.499Z,96.41
2022-11-29T15:01:10.988Z,96.49
2022-11-29T15:04:16.904Z,96.61
2022-11-29T15:07:26.074Z,96.66
2022-11-29T15:10:32.870Z,96.37
2022-11-29T15:13:40.285Z,96.34
2022-11-29T15:17:00.596Z,96.41
2022-11-29T15:20:23.366Z,96.57
2022-11-29T15:23:28.933Z,96.59
2022-11-29T15:26:37.252Z,96.69
2022-11-29T15:29:48.289Z,96.59
2022-11-29T15:32:57.050Z,96.68
2022-11-29T15:36:06.739Z,96.72
2022-11-29T15:39:26.377Z,96.94
2022-11-29T15:42:41.852Z,96.89
2022-11-29T15:45:51.212Z,96.94
2022-11-29T15:48:57.493Z,96.87
2022-11-29T15:52:06.366Z,96.91
2022-11-29T15:55:14.031Z,96.82
2022-11-29T15:58:23.301Z,96.85
2022-11-29T16:01:28.906Z,96.97
2022-11-29T16:04:35.021Z,97.16
2022-11-29T16:07:40.976Z,96.95
2022-11-29T16:10:49.518Z,96.98
2022-11-29T16:14:03.730Z,97.07
2022-11-29T16:17:10.364Z,97.32
2022-11-29T16:20:26.782Z,97.33
2022-11-29T16:23:35.825Z,97.51
2022-11-29T16:26:43.373Z,97.48
2022-11-29T16:29:49.507Z,97.64
2022-11-29T16:32:56.452Z,97.62
2022-11-29T16:36:13.303Z,97.86
2022-11-29T16:39:23.746Z,97.80
2022-11-29T16:42:30.329Z,97.87
2022-11-29T16:45:36.621Z,97.92
2022-11-29T16:48:42.418Z,97.98
2022-11-29T16:51:49.126Z,98.07
2022-11-29T16:54:55.009Z,97.98
2022-11-29T16:58:00.710Z,98.13
2022-11-29T17:01:18.306Z,98.21
2022-11-29T17:04:41.281Z,98.17
2022-11-29T17:07:47.640Z,98.22
2022-11-29T17:10:53.418Z,98.19
2022-11-29T17:13:58.857Z,98.22
2022-11-29T17:17:07.354Z,98.28
2022-11-29T17:20:15.371Z,98.37
2022-11-29T17:23:20.718Z,98.47
2022-11-29T17:26:26.156Z,98.46
2022-11-29T17:29:31.691Z,98.47
2022-11-29T17:32:37.097Z,98.53
2022-11-29T17:35:42.795Z,98.52
2022-11-29T17:38:50.686Z,98.56
2022-11-29T17:41:56.353Z,98.45
2022-11-29T17:45:01.935Z,98.72
2022-11-29T17:48:07.757Z,98.62
2022-11-29T17:51:43.667Z,98.70
2022-11-29T17:54:39.124Z,98.86
2022-11-29T17:57:44.502Z,98.77
2022-11-29T18:00:49.894Z,98.82
2022-11-29T18:03:57.845Z,98.75
2022-11-29T18:07:03.367Z,98.82
2022-11-29T18:10:10.513Z,99.06
2022-11-29T18:13:16.219Z,98.97
2022-11-29T18:16:23.309Z,99.08
2022-11-29T18:19:29.918Z,98.99
2022-11-29T18:22:35.373Z,98.88
2022-11-29T18:25:41.324Z,99.01
2022-11-29T18:28:47.068Z,98.98
2022-11-29T18:31:52.482Z,99.17
2022-11-29T18:34:58.847Z,99.08
2022-11-29T18:38:15.216Z,99.13
2022-11-29T18:41:22.467Z,99.11
2022-11-29T18:44:29.553Z,99.13
2022-11-29T18:47:35.492Z,99.16
2022-11-29T18:50:44.428Z,99.18
2022-11-29T18:53:50.025Z,99.11
2022-11-29T18:56:55.609Z,99.15
2022-11-29T19:00:03.369Z,99.31
2022-11-29T19:03:10.737Z,99.30
2022-11-29T19:06:17.009Z,99.30
2022-11-29T19:09:23.332Z,99.41
2022-11-29T19:12:29.050Z,99.46
2022-11-29T19:15:34.749Z,99.51
2022-11-29T19:18:40.292Z,99.57
2022-11-29T19:21:45.904Z,99.68
2022-11-29T19:24:51.934Z,99.57
2022-11-29T19:27:58.650Z,99.73
2022-11-29T19:31:05.469Z,99.59
2022-11-29T19:34:12.193Z,99.73
2022-11-29T19:37:17.753Z,99.72
2022-11-29T19:40:23.361Z,99.65
2022-11-29T19:43:29.065Z,99.78
2022-11-29T19:46:35.845Z,99.59
2022-11-29T19:49:46.151Z,99.69
2022-11-29T19:52:52.482Z,99.66
2022-11-29T19:55:58.378Z,99.64
2022-11-29T19:59:03.832Z,99.73
2022-11-29T20:02:10.558Z,99.91
2022-11-29T20:05:16.190Z,99.97
2022-11-29T20:08:21.802Z,99.88
2022-11-29T20:11:27.287Z,99.87
2022-11-29T20:14:32.858Z,99.89
2022-11-29T20:17:38.350Z,99.97
2022-11-29T20:20:43.837Z,99.98
2022-11-29T20:23:49.249Z,99.97
2022-11-29T20:26:56.799Z,99.98
2022-11-29T20:30:02.215Z,100.00
2022-11-29T20:33:07.867Z,99.99
2022-11-29T20:36:21.097Z,100.00
2022-11-29T20:39:31.716Z,100.00
2022-11-29T20:42:45.028Z,100.00
2022-11-29T20:45:50.930Z,100.00
2022-11-29T20:48:59.397Z,100.00
2022-11-29T20:52:12.421Z,100.00
2022-11-29T20:55:18.327Z,100.00
2022-11-29T20:58:23.828Z,100.00
2022-11-29T21:01:29.254Z,100.00
2022-11-29T21:04:34.585Z,100.00
2022-11-29T21:07:40.024Z,100.00
2022-11-29T21:10:45.774Z,100.00
2022-11-29T21:13:51.532Z,100.00
2022-11-29T21:16:57.556Z,100.00
2022-11-29T21:20:06.576Z,100.00
2022-11-29T21:23:15.496Z,100.00
2022-11-29T21:26:22.196Z,100.00
2022-11-29T21:29:28.170Z,100.00
2022-11-29T21:32:34.396Z,100.00
2022-11-29T21:35:41.820Z,100.00
2022-11-29T21:38:55.097Z,100.00
2022-11-29T21:42:00.875Z,100.00
2022-11-29T21:45:14.613Z,100.00
2022-11-29T21:48:40.528Z,100.00
2022-11-29T21:51:46.353Z,100.00
2022-11-29T21:54:51.781Z,100.00
2022-11-29T21:57:57.649Z,100.00
2022-11-29T22:01:08.522Z,100.00
2022-11-29T22:04:14.022Z,100.00
2022-11-29T22:07:19.677Z,100.00
2022-11-29T22:10:25.035Z,100.00
2022-11-29T22:13:30.517Z,100.00
2022-11-29T22:16:35.989Z,100.00
2022-11-29T22:19:41.486Z,100.00
2022-11-29T22:22:48.613Z,100.00
2022-11-29T22:25:53.884Z,100.00
2022-11-29T22:28:59.229Z,100.00
2022-11-29T22:32:04.736Z,100.00
2022-11-29T22:35:10.578Z,100.00
2022-11-29T22:38:15.833Z,100.00
2022-11-29T22:41:21.314Z,100.00
2022-11-29T22:44:27.013Z,100.00
2022-11-29T22:47:32.409Z,100.00
2022-11-29T22:50:37.684Z,100.00
2022-11-29T22:53:49.115Z,100.00
2022-11-29T22:56:54.558Z,100.00
2022-11-29T22:59:59.985Z,100.00
2022-11-29T23:03:05.320Z,100.00
2022-11-29T23:06:11.572Z,100.00
2022-11-29T23:09:19.898Z,100.00
2022-11-29T23:12:25.315Z,100.00
2022-11-29T23:15:30.735Z,100.00
2022-11-29T23:18:36.295Z,100.00
2022-11-29T23:21:42.091Z,100.00
2022-11-29T23:24:47.518Z,100.00
2022-11-29T23:27:55.219Z,100.00
2022-11-29T23:31:00.721Z,100.00
2022-11-29T23:34:06.744Z,100.00
2022-11-29T23:37:13.419Z,100.00
2022-11-29T23:40:18.774Z,100.00
2022-11-29T23:43:24.422Z,100.00
2022-11-29T23:46:29.941Z,100.00
2022-11-29T23:49:35.812Z,100.00
2022-11-29T23:52:41.190Z,100.00
2022-11-29T23:55:48.039Z,99.95
2022-11-29T23:58:53.471Z,99.97
